createdAt,value
2023-04-09T00:00:27.881Z,75.45
2023-04-09T00:01:27.868Z,75.65
2023-04-09T00:02:27.917Z,75.85
2023-04-09T00:03:27.900Z,75.65
2023-04-09T00:04:27.889Z,75.51
2023-04-09T00:05:27.837Z,75.51
2023-04-09T00:06:27.889Z,75.10
2023-04-09T00:07:27.857Z,75.51
2023-04-09T00:08:27.858Z,75.31
2023-04-09T00:09:27.822Z,74.80
2023-04-09T00:10:27.819Z,75.31
2023-04-09T00:11:27.824Z,74.90
2023-04-09T00:12:27.802Z,75.24
2023-04-09T00:13:38.664Z,74.93
2023-04-09T00:14:29.797Z,75.79
2023-04-09T00:15:31.026Z,75.79
2023-04-09T00:16:28.806Z,76.20
2023-04-09T00:17:27.851Z,76.84
2023-04-09T00:18:27.809Z,77.70
2023-04-09T00:19:27.842Z,78.31
2023-04-09T00:20:27.793Z,78.72
2023-04-09T00:21:27.781Z,78.52
2023-04-09T00:22:27.752Z,78.86
2023-04-09T00:23:27.876Z,78.42
2023-04-09T00:24:27.796Z,78.83
2023-04-09T00:25:27.760Z,78.49
2023-04-09T00:26:27.773Z,77.87
2023-04-09T00:27:27.743Z,77.76
2023-04-09T00:28:27.762Z,77.76
2023-04-09T00:29:27.757Z,77.46
2023-04-09T00:30:27.735Z,77.76
2023-04-09T00:31:27.739Z,78.28
2023-04-09T00:32:27.731Z,78.08
2023-04-09T00:33:27.717Z,77.87
2023-04-09T00:34:27.726Z,77.80
2023-04-09T00:35:27.757Z,78.35
2023-04-09T00:36:27.697Z,78.63
2023-04-09T00:37:27.721Z,78.42
2023-04-09T00:38:27.695Z,78.63
2023-04-09T00:39:27.687Z,78.56
2023-04-09T00:40:27.648Z,79.03
2023-04-09T00:41:27.689Z,78.93
2023-04-09T00:42:27.686Z,78.25
2023-04-09T00:43:27.643Z,78.42
2023-04-09T00:44:27.660Z,77.87
2023-04-09T00:45:27.676Z,78.17
2023-04-09T00:46:27.643Z,78.01
2023-04-09T00:47:27.702Z,78.72
2023-04-09T00:48:27.628Z,78.45
2023-04-09T00:49:27.642Z,78.66
2023-04-09T00:50:27.601Z,79.31
2023-04-09T00:51:27.631Z,79.55
2023-04-09T00:52:27.640Z,80.07
2023-04-09T00:53:28.624Z,80.58
2023-04-09T00:54:27.601Z,80.68
2023-04-09T00:55:27.589Z,80.92
2023-04-09T00:56:27.599Z,81.50
2023-04-09T00:57:27.614Z,80.74
2023-04-09T00:58:27.560Z,80.85
2023-04-09T00:59:27.537Z,80.09
2023-04-09T01:00:27.624Z,79.68
2023-04-09T01:01:27.653Z,79.24
2023-04-09T01:02:27.712Z,78.93
2023-04-09T01:03:27.661Z,78.42
2023-04-09T01:04:27.540Z,78.38
2023-04-09T01:05:27.506Z,77.76
2023-04-09T01:06:27.512Z,77.76
2023-04-09T01:07:28.492Z,77.56
2023-04-09T01:08:27.544Z,77.87
2023-04-09T01:09:27.479Z,77.15
2023-04-09T01:10:27.491Z,77.26
2023-04-09T01:11:27.486Z,77.29
2023-04-09T01:12:27.461Z,77.36
2023-04-09T01:13:27.455Z,77.39
2023-04-09T01:14:27.503Z,78.01
2023-04-09T01:15:27.470Z,77.80
2023-04-09T01:16:27.527Z,77.70
2023-04-09T01:17:27.484Z,77.91
2023-04-09T01:18:27.493Z,77.46
2023-04-09T01:19:27.453Z,77.36
2023-04-09T01:20:27.426Z,77.05
2023-04-09T01:21:27.896Z,76.23
2023-04-09T01:22:27.412Z,76.98
2023-04-09T01:23:27.418Z,77.29
2023-04-09T01:24:27.392Z,76.78
2023-04-09T01:25:27.400Z,76.78
2023-04-09T01:26:27.412Z,76.54
2023-04-09T01:27:27.380Z,76.54
2023-04-09T01:28:27.366Z,76.84
2023-04-09T01:29:27.368Z,76.43
2023-04-09T01:30:27.388Z,76.57
2023-04-09T01:31:27.342Z,77.50
2023-04-09T01:32:27.379Z,77.29
2023-04-09T01:33:27.352Z,76.78
2023-04-09T01:34:27.333Z,77.29
2023-04-09T01:35:27.344Z,77.33
2023-04-09T01:36:27.342Z,77.43
2023-04-09T01:37:27.311Z,77.98
2023-04-09T01:38:27.306Z,78.74
2023-04-09T01:39:27.314Z,78.83
2023-04-09T01:40:27.325Z,78.80
2023-04-09T01:41:27.328Z,78.25
2023-04-09T01:42:27.306Z,78.25
2023-04-09T01:43:27.298Z,77.64
2023-04-09T01:44:27.276Z,77.23
2023-04-09T01:45:27.318Z,77.23
2023-04-09T01:46:27.412Z,77.43
2023-04-09T01:47:27.456Z,77.53
2023-04-09T01:48:27.255Z,77.64
2023-04-09T01:49:27.253Z,77.70
2023-04-09T01:50:27.247Z,77.29
2023-04-09T01:51:27.266Z,76.88
2023-04-09T01:52:27.269Z,76.68
2023-04-09T01:53:27.229Z,76.20
2023-04-09T01:54:27.217Z,77.67
2023-04-09T01:55:27.227Z,78.83
2023-04-09T01:56:27.204Z,79.14
2023-04-09T01:57:27.220Z,79.14
2023-04-09T01:58:27.227Z,78.86
2023-04-09T01:59:27.183Z,78.25
2023-04-09T02:00:27.218Z,78.45
2023-04-09T02:01:27.242Z,77.60
2023-04-09T02:02:27.331Z,77.36
2023-04-09T02:03:27.250Z,76.57
2023-04-09T02:04:27.170Z,76.34
2023-04-09T02:05:27.158Z,76.34
2023-04-09T02:06:28.731Z,76.34
2023-04-09T02:07:27.140Z,76.20
2023-04-09T02:08:27.132Z,76.88
2023-04-09T02:09:27.123Z,76.88
2023-04-09T02:10:27.135Z,76.54
2023-04-09T02:11:27.133Z,76.92
2023-04-09T02:12:27.154Z,77.73
2023-04-09T02:13:27.160Z,77.84
2023-04-09T02:14:27.133Z,77.70
2023-04-09T02:15:27.149Z,77.50
2023-04-09T02:16:27.112Z,77.67
2023-04-09T02:17:27.154Z,76.95
2023-04-09T02:18:27.088Z,76.75
2023-04-09T02:19:27.081Z,76.64
2023-04-09T02:20:27.078Z,75.72
2023-04-09T02:21:27.107Z,75.52
2023-04-09T02:22:27.106Z,75.76
2023-04-09T02:23:27.069Z,76.47
2023-04-09T02:24:27.059Z,76.88
2023-04-09T02:25:27.083Z,76.43
2023-04-09T02:26:27.092Z,75.62
2023-04-09T02:27:27.051Z,75.62
2023-04-09T02:28:27.013Z,75.42
2023-04-09T02:29:27.023Z,75.93
2023-04-09T02:30:27.018Z,75.45
2023-04-09T02:31:27.085Z,76.61
2023-04-09T02:32:27.125Z,76.88
2023-04-09T02:33:27.000Z,76.23
2023-04-09T02:34:27.036Z,75.69
2023-04-09T02:35:27.000Z,76.81
2023-04-09T02:36:26.979Z,77.33
2023-04-09T02:37:26.992Z,76.88
2023-04-09T02:38:26.975Z,76.17
2023-04-09T02:40:00.419Z,76.13
2023-04-09T02:41:04.220Z,75.62
2023-04-09T02:41:26.978Z,75.01
2023-04-09T02:43:00.399Z,75.52
2023-04-09T02:44:00.375Z,75.01
2023-04-09T02:45:00.375Z,75.21
2023-04-09T02:46:00.586Z,75.45
2023-04-09T02:47:00.400Z,75.69
2023-04-09T02:48:01.957Z,75.86
2023-04-09T02:48:26.936Z,75.79
2023-04-09T02:49:26.951Z,76.61
2023-04-09T02:50:27.880Z,77.02
2023-04-09T02:51:26.891Z,76.92
2023-04-09T02:52:26.910Z,77.23
2023-04-09T02:53:27.043Z,77.43
2023-04-09T02:54:26.912Z,76.78
2023-04-09T02:55:26.991Z,76.37
2023-04-09T02:56:26.891Z,76.34
2023-04-09T02:57:26.987Z,75.62
2023-04-09T02:58:26.922Z,75.24
2023-04-09T02:59:26.874Z,76.40
2023-04-09T03:00:26.980Z,77.23
2023-04-09T03:01:26.851Z,77.09
2023-04-09T03:02:27.150Z,76.40
2023-04-09T03:03:26.934Z,77.87
2023-04-09T03:04:27.063Z,78.28
2023-04-09T03:05:26.851Z,78.42
2023-04-09T03:06:26.812Z,79.08
2023-04-09T03:07:26.836Z,80.21
2023-04-09T03:08:26.805Z,80.31
2023-04-09T03:09:26.807Z,80.00
2023-04-09T03:10:26.810Z,79.86
2023-04-09T03:11:26.802Z,79.59
2023-04-09T03:12:26.787Z,79.93
2023-04-09T03:13:26.802Z,81.10
2023-04-09T03:14:26.793Z,81.68
2023-04-09T03:15:26.838Z,80.96
2023-04-09T03:16:26.881Z,80.69
2023-04-09T03:17:26.832Z,81.16
2023-04-09T03:18:26.765Z,81.06
2023-04-09T03:19:26.845Z,81.06
2023-04-09T03:20:26.761Z,80.35
2023-04-09T03:21:26.753Z,80.76
2023-04-09T03:22:26.747Z,80.35
2023-04-09T03:23:26.728Z,80.65
2023-04-09T03:24:26.750Z,81.16
2023-04-09T03:25:26.760Z,81.16
2023-04-09T03:26:26.680Z,79.93
2023-04-09T03:27:26.708Z,79.87
2023-04-09T03:28:26.713Z,81.16
2023-04-09T03:29:26.686Z,80.65
2023-04-09T03:30:26.667Z,80.62
2023-04-09T03:31:26.715Z,79.49
2023-04-09T03:32:26.731Z,80.00
2023-04-09T03:33:26.667Z,79.80
2023-04-09T03:34:26.710Z,80.00
2023-04-09T03:35:26.682Z,79.59
2023-04-09T03:36:26.705Z,79.38
2023-04-09T03:37:26.707Z,79.24
2023-04-09T03:38:26.636Z,78.42
2023-04-09T03:39:26.663Z,78.63
2023-04-09T03:40:26.665Z,78.59
2023-04-09T03:41:26.633Z,77.94
2023-04-09T03:42:26.665Z,77.64
2023-04-09T03:43:27.607Z,77.12
2023-04-09T03:44:26.664Z,77.64
2023-04-09T03:45:27.438Z,76.92
2023-04-09T03:46:26.601Z,77.02
2023-04-09T03:47:26.636Z,76.78
2023-04-09T03:48:26.578Z,76.51
2023-04-09T03:49:26.630Z,76.81
2023-04-09T03:50:26.572Z,77.12
2023-04-09T03:51:26.555Z,76.37
2023-04-09T03:52:27.399Z,76.98
2023-04-09T03:53:26.536Z,76.37
2023-04-09T03:54:26.564Z,75.96
2023-04-09T03:55:26.531Z,76.17
2023-04-09T03:56:26.680Z,75.96
2023-04-09T03:57:26.548Z,76.57
2023-04-09T03:58:26.526Z,75.65
2023-04-09T03:59:26.552Z,75.96
2023-04-09T04:00:26.512Z,75.96
2023-04-09T04:01:26.494Z,75.86
2023-04-09T04:02:26.609Z,76.17
2023-04-09T04:03:26.649Z,76.47
2023-04-09T04:04:26.611Z,76.47
2023-04-09T04:05:26.496Z,76.06
2023-04-09T04:06:26.479Z,76.37
2023-04-09T04:07:26.479Z,76.57
2023-04-09T04:08:26.506Z,76.78
2023-04-09T04:09:26.467Z,76.10
2023-04-09T04:10:26.493Z,76.40
2023-04-09T04:11:26.445Z,76.20
2023-04-09T04:12:26.450Z,76.31
2023-04-09T04:13:26.472Z,76.81
2023-04-09T04:14:26.410Z,76.37
2023-04-09T04:15:26.423Z,75.86
2023-04-09T04:16:26.453Z,76.57
2023-04-09T04:17:26.488Z,75.69
2023-04-09T04:18:26.422Z,75.59
2023-04-09T04:19:26.421Z,75.79
2023-04-09T04:20:26.442Z,76.44
2023-04-09T04:21:26.414Z,77.71
2023-04-09T04:22:26.474Z,78.56
2023-04-09T04:23:26.472Z,78.70
2023-04-09T04:24:26.388Z,79.42
2023-04-09T04:25:26.388Z,79.73
2023-04-09T04:26:26.401Z,79.38
2023-04-09T04:27:26.370Z,79.18
2023-04-09T04:28:26.361Z,79.38
2023-04-09T04:29:26.446Z,79.18
2023-04-09T04:30:26.352Z,79.18
2023-04-09T04:31:26.356Z,78.63
2023-04-09T04:32:26.360Z,78.12
2023-04-09T04:33:26.346Z,78.46
2023-04-09T04:34:27.490Z,79.32
2023-04-09T04:35:26.328Z,80.18
2023-04-09T04:36:26.302Z,80.45
2023-04-09T04:37:26.330Z,79.59
2023-04-09T04:38:26.365Z,79.69
2023-04-09T04:39:26.296Z,79.35
2023-04-09T04:40:26.287Z,78.94
2023-04-09T04:41:26.285Z,77.81
2023-04-09T04:42:26.299Z,77.84
2023-04-09T04:43:26.266Z,78.53
2023-04-09T04:44:26.589Z,78.83
2023-04-09T04:45:26.274Z,78.02
2023-04-09T04:46:26.265Z,78.32
2023-04-09T04:47:26.274Z,77.91
2023-04-09T04:48:26.238Z,77.74
2023-04-09T04:49:26.239Z,78.67
2023-04-09T04:50:26.523Z,79.01
2023-04-09T04:51:26.229Z,79.28
2023-04-09T04:52:26.207Z,79.32
2023-04-09T04:53:26.240Z,79.63
2023-04-09T04:54:26.639Z,79.69
2023-04-09T04:55:26.246Z,79.63
2023-04-09T04:56:26.232Z,80.86
2023-04-09T04:57:26.385Z,80.24
2023-04-09T04:58:26.213Z,80.14
2023-04-09T04:59:26.218Z,79.90
2023-04-09T05:00:26.160Z,78.97
2023-04-09T05:01:26.185Z,79.52
2023-04-09T05:02:26.268Z,80.07
2023-04-09T05:03:27.690Z,80.58
2023-04-09T05:04:27.261Z,80.38
2023-04-09T05:05:26.176Z,80.49
2023-04-09T05:06:26.130Z,80.79
2023-04-09T05:07:26.135Z,80.69
2023-04-09T05:08:26.115Z,81.20
2023-04-09T05:09:27.172Z,81.30
2023-04-09T05:10:26.126Z,80.69
2023-04-09T05:11:26.119Z,80.28
2023-04-09T05:12:26.108Z,80.49
2023-04-09T05:13:26.136Z,80.58
2023-04-09T05:14:26.068Z,81.20
2023-04-09T05:15:26.093Z,81.86
2023-04-09T05:16:26.122Z,82.17
2023-04-09T05:17:26.167Z,81.76
2023-04-09T05:18:26.130Z,81.04
2023-04-09T05:19:26.074Z,81.51
2023-04-09T05:20:26.079Z,81.82
2023-04-09T05:21:26.074Z,81.37
2023-04-09T05:22:26.036Z,80.21
2023-04-09T05:23:26.029Z,79.38
2023-04-09T05:24:26.213Z,79.38
2023-04-09T05:25:26.058Z,79.14
2023-04-09T05:26:26.047Z,79.18
2023-04-09T05:27:26.030Z,78.74
2023-04-09T05:28:26.007Z,78.63
2023-04-09T05:29:26.063Z,78.63
2023-04-09T05:30:26.052Z,78.63
2023-04-09T05:31:25.979Z,78.63
2023-04-09T05:32:26.046Z,79.08
2023-04-09T05:33:25.981Z,79.42
2023-04-09T05:34:25.984Z,80.14
2023-04-09T05:35:25.994Z,79.90
2023-04-09T05:36:26.045Z,79.49
2023-04-09T05:37:26.005Z,78.94
2023-04-09T05:38:25.955Z,78.63
2023-04-09T05:39:25.969Z,78.02
2023-04-09T05:40:25.935Z,79.08
2023-04-09T05:41:25.931Z,78.67
2023-04-09T05:42:25.944Z,78.87
2023-04-09T05:43:25.929Z,78.97
2023-04-09T05:44:25.984Z,79.08
2023-04-09T05:45:26.019Z,78.19
2023-04-09T05:46:26.032Z,77.53
2023-04-09T05:47:25.926Z,76.31
2023-04-09T05:48:25.881Z,75.65
2023-04-09T05:49:25.887Z,75.35
2023-04-09T05:50:26.896Z,75.14
2023-04-09T05:51:25.883Z,75.42
2023-04-09T05:52:25.868Z,75.31
2023-04-09T05:53:26.918Z,74.66
2023-04-09T05:54:25.907Z,73.88
2023-04-09T05:55:25.876Z,74.05
2023-04-09T05:56:25.831Z,73.23
2023-04-09T05:57:25.869Z,73.50
2023-04-09T05:58:25.875Z,73.30
2023-04-09T05:59:25.863Z,74.15
2023-04-09T06:00:25.802Z,73.44
2023-04-09T06:01:25.811Z,73.64
2023-04-09T06:02:25.961Z,74.02
2023-04-09T06:03:25.925Z,73.71
2023-04-09T06:04:25.867Z,73.06
2023-04-09T06:05:25.809Z,73.10
2023-04-09T06:06:25.784Z,72.75
2023-04-09T06:07:26.455Z,72.45
2023-04-09T06:08:25.760Z,72.14
2023-04-09T06:09:25.783Z,72.99
2023-04-09T06:10:25.830Z,72.34
2023-04-09T06:11:25.754Z,72.04
2023-04-09T06:12:25.731Z,72.04
2023-04-09T06:13:26.746Z,72.04
2023-04-09T06:14:25.748Z,72.99
2023-04-09T06:15:25.775Z,73.98
2023-04-09T06:16:25.722Z,75.14
2023-04-09T06:17:25.736Z,75.52
2023-04-09T06:18:25.696Z,74.56
2023-04-09T06:19:25.712Z,74.05
2023-04-09T06:20:25.717Z,73.36
2023-04-09T06:21:25.688Z,74.84
2023-04-09T06:22:25.672Z,75.59
2023-04-09T06:23:25.709Z,76.10
2023-04-09T06:24:25.671Z,75.86
2023-04-09T06:25:25.718Z,75.86
2023-04-09T06:26:25.653Z,75.55
2023-04-09T06:27:25.681Z,75.65
2023-04-09T06:28:25.651Z,75.86
2023-04-09T06:29:25.652Z,75.62
2023-04-09T06:30:25.675Z,75.76
2023-04-09T06:31:25.678Z,75.62
2023-04-09T06:32:25.664Z,75.01
2023-04-09T06:33:25.691Z,74.29
2023-04-09T06:34:25.643Z,75.45
2023-04-09T06:35:25.616Z,75.72
2023-04-09T06:36:25.619Z,74.66
2023-04-09T06:37:25.598Z,74.46
2023-04-09T06:38:25.595Z,74.11
2023-04-09T06:39:25.599Z,73.81
2023-04-09T06:40:25.592Z,73.81
2023-04-09T06:41:25.579Z,73.40
2023-04-09T06:42:25.624Z,74.43
2023-04-09T06:43:25.596Z,73.40
2023-04-09T06:44:25.547Z,73.81
2023-04-09T06:45:25.553Z,74.32
2023-04-09T06:46:25.578Z,74.22
2023-04-09T06:47:25.554Z,75.27
2023-04-09T06:48:25.577Z,75.07
2023-04-09T06:49:25.535Z,75.17
2023-04-09T06:50:25.573Z,74.52
2023-04-09T06:51:25.503Z,73.91
2023-04-09T06:52:25.526Z,73.71
2023-04-09T06:53:25.608Z,74.22
2023-04-09T06:54:25.502Z,73.47
2023-04-09T06:55:25.698Z,72.69
2023-04-09T06:56:25.505Z,71.53
2023-04-09T06:57:25.501Z,71.26
2023-04-09T06:58:25.467Z,72.21
2023-04-09T06:59:25.467Z,72.00
2023-04-09T07:00:25.467Z,71.87
2023-04-09T07:01:25.438Z,70.64
2023-04-09T07:02:25.737Z,70.75
2023-04-09T07:03:25.581Z,71.59
2023-04-09T07:04:25.552Z,71.19
2023-04-09T07:05:25.433Z,71.53
2023-04-09T07:06:25.436Z,72.04
2023-04-09T07:07:25.869Z,71.80
2023-04-09T07:08:26.631Z,71.39
2023-04-09T07:09:25.399Z,71.50
2023-04-09T07:15:31.503Z,67.93
2023-04-09T07:17:09.245Z,67.86
2023-04-09T07:18:06.013Z,67.15
2023-04-09T07:18:32.553Z,66.82
2023-04-09T07:20:05.941Z,65.66
2023-04-09T07:21:05.994Z,65.19
2023-04-09T07:21:32.504Z,64.35
2023-04-09T07:22:32.545Z,63.02
2023-04-09T07:24:05.954Z,62.62
2023-04-09T07:24:32.493Z,64.28
2023-04-09T07:26:05.960Z,63.57
2023-04-09T07:26:32.469Z,64.34
2023-04-09T07:28:05.922Z,65.80
2023-04-09T07:28:32.453Z,66.54
2023-04-09T07:29:32.459Z,67.35
2023-04-09T07:30:32.465Z,67.46
2023-04-09T07:31:35.236Z,66.78
2023-04-09T07:32:32.477Z,65.63
2023-04-09T07:33:32.464Z,64.15
2023-04-09T07:34:32.436Z,63.54
2023-04-09T07:35:32.450Z,62.91
2023-04-09T07:36:32.630Z,59.32
2023-04-09T07:37:32.410Z,55.65
2023-04-09T07:38:32.415Z,53.58
2023-04-09T07:39:32.414Z,52.76
2023-04-09T07:40:32.380Z,52.74
2023-04-09T07:41:32.397Z,52.87
2023-04-09T07:42:32.398Z,52.89
2023-04-09T07:43:32.425Z,52.51
2023-04-09T07:44:32.363Z,51.23
2023-04-09T07:45:32.363Z,49.45
2023-04-09T07:46:32.357Z,49.44
2023-04-09T07:47:32.450Z,52.09
2023-04-09T07:48:32.409Z,52.64
2023-04-09T07:49:32.306Z,50.73
2023-04-09T07:50:32.317Z,47.82
2023-04-09T07:51:32.294Z,48.37
2023-04-09T07:52:32.298Z,48.77
2023-04-09T07:53:32.322Z,49.85
2023-04-09T07:54:32.362Z,51.51
2023-04-09T07:55:32.298Z,51.08
2023-04-09T07:56:32.302Z,48.37
2023-04-09T07:57:32.274Z,47.60
2023-04-09T07:58:32.270Z,46.25
2023-04-09T07:59:32.265Z,46.03
2023-04-09T08:00:32.255Z,44.54
2023-04-09T08:01:32.303Z,44.58
2023-04-09T08:02:32.470Z,44.20
2023-04-09T08:03:32.511Z,44.18
2023-04-09T08:04:32.454Z,44.43
2023-04-09T08:05:32.216Z,44.88
2023-04-09T08:06:32.202Z,44.46
2023-04-09T08:07:32.197Z,45.34
2023-04-09T08:08:32.212Z,46.96
2023-04-09T08:09:32.264Z,47.59
2023-04-09T08:10:32.176Z,49.65
2023-04-09T08:11:32.189Z,49.82
2023-04-09T08:12:32.193Z,49.32
2023-04-09T08:13:32.173Z,49.35
2023-04-09T08:14:32.181Z,48.55
2023-04-09T08:15:32.187Z,46.87
2023-04-09T08:16:32.195Z,45.62
2023-04-09T08:17:32.166Z,45.22
2023-04-09T08:18:32.155Z,45.77
2023-04-09T08:19:32.160Z,45.14
2023-04-09T08:20:32.110Z,46.31
2023-04-09T08:21:32.131Z,47.72
2023-04-09T08:22:32.123Z,46.69
2023-04-09T08:23:32.098Z,46.94
2023-04-09T08:24:32.139Z,46.88
2023-04-09T08:25:32.120Z,48.99
2023-04-09T08:26:32.749Z,49.40
2023-04-09T08:27:32.109Z,47.52
2023-04-09T08:28:32.122Z,47.06
2023-04-09T08:29:32.175Z,47.91
2023-04-09T08:30:32.104Z,51.25
2023-04-09T08:31:32.175Z,52.87
2023-04-09T08:32:32.128Z,53.19
2023-04-09T08:33:32.063Z,53.88
2023-04-09T08:34:32.088Z,52.84
2023-04-09T08:35:32.061Z,53.09
2023-04-09T08:36:32.181Z,50.05
2023-04-09T08:37:32.020Z,47.28
2023-04-09T08:38:32.057Z,47.81
2023-04-09T08:39:32.006Z,46.92
2023-04-09T08:40:32.105Z,45.14
2023-04-09T08:41:32.011Z,44.08
2023-04-09T08:42:32.101Z,44.20
2023-04-09T08:43:52.702Z,43.88
2023-04-09T08:44:34.096Z,44.42
2023-04-09T08:45:32.063Z,44.22
2023-04-09T08:46:31.993Z,44.81
2023-04-09T08:47:32.050Z,47.11
2023-04-09T08:48:32.069Z,48.46
2023-04-09T08:49:32.020Z,48.79
2023-04-09T08:50:31.984Z,48.61
2023-04-09T08:51:31.950Z,47.74
2023-04-09T08:52:32.671Z,47.26
2023-04-09T08:53:31.935Z,47.22
2023-04-09T08:54:32.214Z,44.14
2023-04-09T08:55:31.915Z,44.98
2023-04-09T08:56:31.979Z,41.52
2023-04-09T08:57:31.908Z,41.47
2023-04-09T08:58:31.898Z,41.27
2023-04-09T08:59:31.911Z,41.49
2023-04-09T09:00:31.918Z,41.52
2023-04-09T09:01:32.031Z,42.55
2023-04-09T09:02:32.071Z,43.98
2023-04-09T09:03:32.105Z,47.58
2023-04-09T09:04:31.905Z,47.45
2023-04-09T09:05:31.860Z,48.55
2023-04-09T09:06:31.855Z,49.99
2023-04-09T09:07:31.959Z,50.84
2023-04-09T09:08:31.912Z,51.10
2023-04-09T09:09:31.856Z,49.16
2023-04-09T09:10:31.834Z,47.86
2023-04-09T09:11:31.842Z,49.18
2023-04-09T09:12:31.849Z,49.87
2023-04-09T09:13:31.851Z,49.62
2023-04-09T09:14:31.789Z,48.83
2023-04-09T09:15:31.802Z,48.93
2023-04-09T09:16:31.851Z,49.08
2023-04-09T09:17:31.829Z,48.22
2023-04-09T09:18:31.785Z,48.02
2023-04-09T09:19:31.772Z,47.58
2023-04-09T09:20:31.771Z,48.30
2023-04-09T09:21:32.080Z,47.80
2023-04-09T09:22:31.783Z,46.99
2023-04-09T09:23:31.782Z,47.52
2023-04-09T09:24:31.763Z,47.52
2023-04-09T09:25:31.755Z,49.22
2023-04-09T09:26:31.732Z,49.93
2023-04-09T09:27:31.722Z,49.99
2023-04-09T09:28:31.796Z,48.81
2023-04-09T09:29:31.740Z,49.66
2023-04-09T09:30:31.774Z,51.00
2023-04-09T09:31:31.853Z,50.27
2023-04-09T09:32:31.789Z,49.66
2023-04-09T09:33:32.357Z,49.46
2023-04-09T09:34:31.737Z,50.14
2023-04-09T09:35:31.869Z,51.88
2023-04-09T09:36:31.702Z,50.80
2023-04-09T09:37:31.751Z,49.99
2023-04-09T09:38:31.654Z,50.14
2023-04-09T09:39:31.673Z,51.35
2023-04-09T09:40:31.729Z,50.09
2023-04-09T09:41:31.661Z,51.78
2023-04-09T09:42:31.762Z,51.37
2023-04-09T09:43:31.639Z,51.45
2023-04-09T09:44:31.930Z,50.04
2023-04-09T09:45:31.682Z,50.01
2023-04-09T09:46:31.760Z,49.93
2023-04-09T09:47:32.288Z,49.79
2023-04-09T09:48:31.673Z,49.48
2023-04-09T09:49:31.671Z,47.95
2023-04-09T09:50:31.606Z,47.97
2023-04-09T09:51:31.600Z,48.96
2023-04-09T09:52:31.584Z,47.97
2023-04-09T09:53:31.577Z,48.10
2023-04-09T09:54:31.575Z,50.46
2023-04-09T09:55:31.562Z,50.01
2023-04-09T09:56:31.558Z,50.24
2023-04-09T09:57:31.560Z,50.14
2023-04-09T09:58:31.664Z,49.41
2023-04-09T09:59:31.578Z,49.53
2023-04-09T10:00:31.625Z,50.21
2023-04-09T10:01:31.674Z,49.89
2023-04-09T10:02:31.597Z,48.07
2023-04-09T10:03:31.532Z,48.45
2023-04-09T10:04:31.618Z,48.07
2023-04-09T10:05:31.519Z,49.30
2023-04-09T10:06:31.548Z,48.47
2023-04-09T10:07:31.476Z,49.01
2023-04-09T10:08:31.467Z,50.06
2023-04-09T10:09:31.491Z,51.65
2023-04-09T10:10:31.505Z,51.25
2023-04-09T10:11:31.467Z,52.84
2023-04-09T10:12:31.456Z,53.85
2023-04-09T10:13:31.467Z,53.02
2023-04-09T10:14:31.504Z,52.39
2023-04-09T10:15:31.551Z,51.65
2023-04-09T10:16:31.618Z,51.45
2023-04-09T10:17:32.529Z,51.27
2023-04-09T10:18:31.400Z,51.12
2023-04-09T10:19:31.459Z,49.68
2023-04-09T10:20:31.435Z,51.35
2023-04-09T10:21:31.409Z,50.74
2023-04-09T10:22:31.428Z,50.21
2023-04-09T10:23:31.390Z,50.23
2023-04-09T10:24:31.387Z,51.75
2023-04-09T10:25:31.376Z,52.64
2023-04-09T10:26:31.373Z,53.14
2023-04-09T10:27:31.400Z,52.92
2023-04-09T10:28:31.366Z,52.36
2023-04-09T10:29:31.348Z,52.36
2023-04-09T10:30:31.337Z,52.36
2023-04-09T10:31:31.416Z,53.07
2023-04-09T10:32:31.392Z,52.41
2023-04-09T10:33:31.344Z,52.71
2023-04-09T10:34:31.342Z,53.80
2023-04-09T10:35:31.331Z,52.81
2023-04-09T10:36:31.360Z,52.41
2023-04-09T10:37:31.321Z,52.71
2023-04-09T10:38:31.321Z,53.02
2023-04-09T10:39:31.268Z,54.08
2023-04-09T10:40:31.297Z,54.05
2023-04-09T10:41:31.319Z,53.98
2023-04-09T10:42:31.330Z,54.33
2023-04-09T10:43:31.258Z,52.97
2023-04-09T10:44:31.273Z,51.57
2023-04-09T10:45:31.230Z,51.12
2023-04-09T10:46:31.315Z,51.75
2023-04-09T10:47:31.240Z,50.54
2023-04-09T10:48:31.288Z,50.09
2023-04-09T10:49:31.247Z,50.44
2023-04-09T10:50:31.235Z,48.17
2023-04-09T10:51:31.200Z,48.85
2023-04-09T10:52:31.200Z,47.80
2023-04-09T10:53:31.269Z,45.86
2023-04-09T10:54:31.240Z,46.11
2023-04-09T10:55:31.280Z,46.56
2023-04-09T10:56:31.166Z,47.63
2023-04-09T10:57:31.156Z,48.03
2023-04-09T10:58:31.152Z,49.17
2023-04-09T10:59:31.129Z,49.50
2023-04-09T11:00:31.131Z,48.36
2023-04-09T11:01:31.234Z,47.38
2023-04-09T11:02:31.339Z,49.32
2023-04-09T11:03:31.277Z,48.31
2023-04-09T11:04:31.335Z,47.98
2023-04-09T11:05:31.130Z,45.42
2023-04-09T11:06:31.078Z,48.13
2023-04-09T11:07:31.104Z,47.17
2023-04-09T11:08:31.079Z,44.90
2023-04-09T11:09:31.080Z,44.84
2023-04-09T11:10:31.065Z,46.16
2023-04-09T11:11:31.074Z,47.05
2023-04-09T11:12:31.073Z,47.17
2023-04-09T11:13:31.117Z,48.11
2023-04-09T11:14:31.035Z,49.47
2023-04-09T11:15:31.062Z,48.11
2023-04-09T11:16:31.066Z,47.13
2023-04-09T11:17:31.055Z,46.91
2023-04-09T11:18:31.100Z,46.32
2023-04-09T11:19:31.050Z,47.30
2023-04-09T11:20:31.036Z,47.92
2023-04-09T11:21:30.987Z,47.39
2023-04-09T11:22:31.048Z,47.83
2023-04-09T11:23:30.996Z,47.31
2023-04-09T11:24:31.015Z,46.96
2023-04-09T11:25:31.822Z,45.04
2023-04-09T11:26:31.022Z,45.12
2023-04-09T11:27:32.300Z,45.00
2023-04-09T11:28:31.066Z,43.54
2023-04-09T11:29:30.977Z,43.79
2023-04-09T11:30:30.926Z,43.18
2023-04-09T11:31:30.998Z,41.49
2023-04-09T11:32:30.987Z,39.42
2023-04-09T11:33:30.944Z,40.62
2023-04-09T11:34:30.893Z,40.12
2023-04-09T11:35:31.029Z,41.55
2023-04-09T11:36:30.915Z,41.83
2023-04-09T11:37:30.936Z,43.23
2023-04-09T11:38:30.903Z,44.25
2023-04-09T11:39:30.931Z,45.04
2023-04-09T11:40:30.888Z,43.63
2023-04-09T11:41:30.944Z,44.11
2023-04-09T11:42:30.872Z,43.06
2023-04-09T11:43:30.856Z,42.13
2023-04-09T11:44:30.847Z,41.63
2023-04-09T11:45:30.832Z,42.11
2023-04-09T11:46:30.871Z,41.85
2023-04-09T11:47:31.002Z,43.04
2023-04-09T11:48:30.840Z,42.60
2023-04-09T11:49:31.019Z,44.58
2023-04-09T11:50:30.852Z,44.23
2023-04-09T11:51:30.908Z,43.30
2023-04-09T11:52:30.833Z,43.16
2023-04-09T11:53:30.813Z,42.41
2023-04-09T11:54:30.798Z,41.65
2023-04-09T11:55:30.778Z,42.27
2023-04-09T11:56:30.805Z,43.06
2023-04-09T11:57:30.778Z,42.46
2023-04-09T11:58:30.798Z,42.05
2023-04-09T11:59:30.813Z,41.19
2023-04-09T12:00:30.811Z,40.78
2023-04-09T12:01:30.780Z,39.48
2023-04-09T12:02:30.902Z,39.76
2023-04-09T12:03:31.015Z,40.06
2023-04-09T12:04:30.844Z,39.34
2023-04-09T12:05:30.733Z,38.90
2023-04-09T12:06:30.847Z,39.32
2023-04-09T12:07:30.731Z,38.42
2023-04-09T12:08:30.718Z,38.45
2023-04-09T12:09:30.725Z,39.86
2023-04-09T12:10:30.774Z,39.05
2023-04-09T12:11:30.710Z,39.14
2023-04-09T12:12:30.719Z,38.77
2023-04-09T12:13:30.682Z,39.79
2023-04-09T12:14:30.716Z,39.78
2023-04-09T12:15:30.670Z,39.22
2023-04-09T12:16:30.715Z,35.85
2023-04-09T12:17:30.779Z,36.15
2023-04-09T12:18:30.684Z,34.48
2023-04-09T12:19:30.713Z,35.55
2023-04-09T12:20:30.644Z,36.28
2023-04-09T12:21:30.676Z,36.02
2023-04-09T12:22:30.744Z,39.30
2023-04-09T12:23:30.600Z,38.51
2023-04-09T12:24:30.735Z,39.48
2023-04-09T12:25:31.280Z,39.16
2023-04-09T12:26:30.616Z,37.94
2023-04-09T12:27:32.882Z,39.47
2023-04-09T12:28:30.605Z,36.50
2023-04-09T12:29:30.588Z,37.62
2023-04-09T12:30:30.579Z,36.41
2023-04-09T12:31:30.635Z,36.89
2023-04-09T12:32:30.576Z,38.75
2023-04-09T12:33:30.559Z,39.79
2023-04-09T12:34:30.541Z,41.16
2023-04-09T12:35:30.764Z,42.47
2023-04-09T12:36:30.555Z,41.95
2023-04-09T12:37:30.884Z,41.63
2023-04-09T12:38:30.614Z,40.40
2023-04-09T12:39:31.658Z,40.48
2023-04-09T12:40:30.512Z,39.79
2023-04-09T12:41:30.534Z,39.43
2023-04-09T12:42:30.488Z,36.87
2023-04-09T12:43:30.520Z,38.78
2023-04-09T12:44:30.484Z,37.28
2023-04-09T12:45:30.700Z,35.73
2023-04-09T12:46:30.529Z,35.01
2023-04-09T12:47:31.293Z,33.26
2023-04-09T12:48:31.367Z,33.29
2023-04-09T12:49:30.449Z,33.38
2023-04-09T12:50:30.452Z,34.80
2023-04-09T12:51:30.441Z,36.83
2023-04-09T12:52:30.431Z,37.00
2023-04-09T12:53:30.487Z,35.81
2023-04-09T12:54:30.405Z,34.89
2023-04-09T12:55:30.461Z,35.30
2023-04-09T12:56:30.410Z,35.16
2023-04-09T12:57:30.437Z,33.61